createdAt,value
2022-09-05T00:08:00.480Z,985.71
2022-09-05T00:24:17.088Z,985.71
2022-09-05T00:32:01.171Z,985.67
2022-09-05T00:44:01.566Z,985.58
2022-09-05T00:56:02.039Z,985.59
2022-09-05T01:08:02.493Z,985.60
2022-09-05T01:20:18.370Z,985.66
2022-09-05T01:32:03.426Z,985.61
2022-09-05T01:44:03.813Z,985.64
2022-09-05T01:56:07.048Z,985.67
2022-09-05T02:08:04.747Z,985.72
2022-09-05T02:20:05.207Z,985.81
2022-09-05T02:32:05.659Z,985.71
2022-09-05T02:45:12.666Z,985.67
2022-09-05T02:57:59.893Z,985.69
2022-09-05T03:08:07.024Z,985.72
2022-09-05T03:20:07.470Z,985.82
2022-09-05T03:32:07.951Z,985.74
2022-09-05T03:44:08.383Z,985.78
2022-09-05T03:57:25.099Z,985.67
2022-09-05T04:08:41.954Z,985.62
2022-09-05T04:20:09.775Z,985.67
2022-09-05T04:32:19.027Z,985.66
2022-09-05T04:44:10.650Z,985.88
2022-09-05T04:56:11.107Z,985.85
2022-09-05T05:08:11.757Z,985.93
2022-09-05T05:20:40.235Z,986.05
2022-09-05T05:32:12.437Z,986.13
2022-09-05T05:44:12.950Z,986.24
2022-09-05T05:56:13.368Z,986.30
2022-09-05T06:10:03.795Z,986.26
2022-09-05T06:22:05.833Z,986.32
2022-09-05T06:32:14.769Z,986.32
2022-09-05T06:44:15.236Z,986.18
2022-09-05T06:56:25.587Z,986.24
2022-09-05T07:08:33.111Z,986.24
2022-09-05T07:20:16.563Z,986.22
2022-09-05T07:32:19.268Z,986.22
2022-09-05T07:44:17.468Z,986.19
2022-09-05T07:56:49.253Z,986.14
2022-09-05T08:08:18.346Z,986.19
2022-09-05T08:20:18.827Z,986.23
2022-09-05T08:32:19.296Z,986.10
2022-09-05T08:46:40.507Z,986.05
2022-09-05T08:56:20.724Z,986.05
2022-09-05T09:08:22.260Z,986.01
2022-09-05T09:20:21.092Z,986.05
2022-09-05T09:32:21.565Z,986.05
2022-09-05T09:44:21.991Z,985.85
2022-09-05T09:56:22.506Z,985.85
2022-09-05T10:11:18.807Z,985.75
2022-09-05T10:20:28.686Z,985.71
2022-09-05T10:35:05.253Z,985.59
2022-09-05T10:44:24.324Z,985.54
2022-09-05T10:56:28.525Z,985.51
2022-09-05T11:08:25.219Z,985.40
2022-09-05T11:20:34.825Z,985.35
2022-09-05T11:39:46.035Z,985.20
2022-09-05T11:44:27.317Z,985.13
2022-09-05T11:56:28.729Z,985.02
2022-09-05T12:08:28.693Z,984.95
2022-09-05T12:20:27.970Z,984.97
2022-09-05T12:34:46.767Z,984.80
2022-09-05T12:44:41.359Z,984.74
2022-09-05T12:58:07.451Z,984.64
2022-09-05T13:08:29.819Z,984.50
2022-09-05T13:20:30.243Z,984.48
2022-09-05T13:37:59.532Z,984.37
2022-09-05T13:44:31.116Z,984.31
2022-09-05T13:56:31.631Z,984.27
2022-09-05T14:08:32.096Z,984.14
2022-09-05T14:20:32.524Z,984.00
2022-09-05T14:37:43.228Z,983.96
2022-09-05T14:44:33.478Z,983.98
2022-09-05T15:00:05.349Z,983.94
2022-09-05T15:11:24.726Z,983.77
2022-09-05T15:20:34.816Z,983.75
2022-09-05T15:32:35.256Z,983.77
2022-09-05T15:44:53.214Z,983.70
2022-09-05T15:56:36.200Z,983.60
2022-09-05T16:10:46.268Z,983.58
2022-09-05T16:23:26.369Z,983.59
2022-09-05T16:32:37.553Z,983.54
2022-09-05T16:44:38.196Z,983.54
2022-09-05T16:56:38.454Z,983.51
2022-09-05T17:08:38.950Z,983.55
2022-09-05T17:20:39.384Z,983.52
2022-09-05T17:32:39.850Z,983.59
2022-09-05T17:44:40.266Z,983.62
2022-09-05T17:56:40.759Z,983.69
2022-09-05T18:08:41.201Z,983.87
2022-09-05T18:20:41.644Z,983.82
2022-09-05T18:32:42.090Z,983.95
2022-09-05T18:44:42.579Z,984.07
2022-09-05T18:57:19.889Z,984.07
2022-09-05T19:08:43.491Z,984.18
2022-09-05T19:20:43.912Z,984.15
2022-09-05T19:36:53.600Z,984.07
2022-09-05T19:47:48.648Z,983.96
2022-09-05T19:56:45.311Z,983.98
2022-09-05T20:08:45.737Z,983.86
2022-09-05T20:20:46.221Z,983.83
2022-09-05T20:32:46.654Z,983.84
2022-09-05T20:44:47.109Z,983.78
2022-09-05T20:56:47.571Z,983.76
2022-09-05T21:08:48.051Z,983.80
2022-09-05T21:20:48.478Z,983.84
2022-09-05T21:32:48.939Z,983.84
2022-09-05T21:47:45.067Z,983.65
2022-09-05T21:59:19.174Z,983.69
2022-09-05T22:09:11.356Z,983.66
2022-09-05T22:21:02.929Z,983.43
2022-09-05T22:32:51.185Z,983.44
2022-09-05T22:44:51.689Z,983.40
2022-09-05T22:56:52.154Z,983.33
2022-09-05T23:08:52.569Z,983.14
2022-09-05T23:20:52.997Z,983.08
2022-09-05T23:32:53.509Z,983.05
2022-09-05T23:44:53.945Z,983.01
2022-09-05T23:56:54.380Z,982.86
